createdAt,value
2022-08-12T00:02:02.852Z,101806.13
2022-08-12T00:05:40.011Z,101817.27
2022-08-12T00:08:49.840Z,101809.70
2022-08-12T00:11:36.712Z,101813.66
2022-08-12T00:14:23.970Z,101809.10
2022-08-12T00:17:11.267Z,101807.79
2022-08-12T00:19:57.961Z,101811.30
2022-08-12T00:22:53.099Z,101810.70
2022-08-12T00:26:21.298Z,101815.65
2022-08-12T00:29:04.020Z,101818.62
2022-08-12T00:31:51.238Z,101821.10
2022-08-12T00:34:38.499Z,101820.89
2022-08-12T00:37:24.954Z,101820.38
2022-08-12T00:40:12.306Z,101824.38
2022-08-12T00:42:42.110Z,101821.36
2022-08-12T00:45:11.546Z,101825.38
2022-08-12T00:47:40.574Z,101821.90
2022-08-12T00:50:17.435Z,101821.64
2022-08-12T00:52:46.759Z,101818.18
2022-08-12T00:55:16.462Z,101815.14
2022-08-12T00:57:47.989Z,101819.33
2022-08-12T01:00:20.798Z,101818.30
2022-08-12T01:02:51.644Z,101817.81
2022-08-12T01:05:46.927Z,101818.58
2022-08-12T01:08:45.189Z,101820.77
2022-08-12T01:11:32.091Z,101820.23
2022-08-12T01:14:02.227Z,101819.91
2022-08-12T01:16:31.337Z,101819.95
2022-08-12T01:19:01.136Z,101818.04
2022-08-12T01:21:56.547Z,101817.23
2022-08-12T01:24:51.478Z,101810.80
2022-08-12T01:27:21.179Z,101808.15
2022-08-12T01:29:51.803Z,101811.73
2022-08-12T01:32:23.252Z,101811.16
2022-08-12T01:35:01.112Z,101809.75
2022-08-12T01:37:33.350Z,101809.86
2022-08-12T01:40:35.492Z,101808.96
2022-08-12T01:42:54.660Z,101810.23
2022-08-12T01:45:24.028Z,101816.38
2022-08-12T01:48:05.267Z,101811.59
2022-08-12T01:50:46.849Z,101805.85
2022-08-12T01:53:20.329Z,101804.23
2022-08-12T01:55:49.971Z,101802.81
2022-08-12T01:58:49.919Z,101801.23
2022-08-12T02:01:23.690Z,101801.17
2022-08-12T02:04:24.553Z,101799.55
2022-08-12T02:07:20.752Z,101801.70
2022-08-12T02:10:50.133Z,101804.40
2022-08-12T02:13:43.812Z,101800.80
2022-08-12T02:16:21.858Z,101805.57
2022-08-12T02:19:03.132Z,101807.65
2022-08-12T02:21:47.423Z,101808.06
2022-08-12T02:24:20.087Z,101810.80
2022-08-12T02:26:49.943Z,101811.25
2022-08-12T02:29:20.086Z,101811.52
2022-08-12T02:31:49.831Z,101813.73
2022-08-12T02:34:19.021Z,101815.09
2022-08-12T02:36:48.847Z,101809.14
2022-08-12T02:39:22.987Z,101805.55
2022-08-12T02:41:54.321Z,101807.30
2022-08-12T02:44:25.943Z,101809.20
2022-08-12T02:46:58.842Z,101806.35
2022-08-12T02:49:32.528Z,101805.98
2022-08-12T02:52:01.066Z,101804.73
2022-08-12T02:54:29.500Z,101802.43
2022-08-12T02:56:59.580Z,101804.09
2022-08-12T02:59:29.184Z,101803.23
2022-08-12T03:02:03.020Z,101803.63
2022-08-12T03:04:41.623Z,101799.27
2022-08-12T03:07:17.850Z,101797.02
2022-08-12T03:10:04.009Z,101791.20
2022-08-12T03:12:42.825Z,101793.55
2022-08-12T03:15:22.019Z,101790.58
2022-08-12T03:18:25.850Z,101792.05
2022-08-12T03:20:45.836Z,101792.27
2022-08-12T03:23:17.523Z,101791.90
2022-08-12T03:26:00.003Z,101790.48
2022-08-12T03:28:48.113Z,101788.86
2022-08-12T03:31:18.507Z,101784.95
2022-08-12T03:34:01.754Z,101785.28
2022-08-12T03:36:34.159Z,101788.60
2022-08-12T03:39:36.453Z,101791.38
2022-08-12T03:42:33.011Z,101786.55
2022-08-12T03:45:51.446Z,101790.25
2022-08-12T03:48:40.305Z,101790.69
2022-08-12T03:51:29.250Z,101790.77
2022-08-12T03:54:16.418Z,101790.74
2022-08-12T03:57:03.510Z,101792.30
2022-08-12T03:59:50.561Z,101799.01
2022-08-12T04:02:18.985Z,101801.25
2022-08-12T04:04:49.390Z,101799.39
2022-08-12T04:07:18.201Z,101799.39
2022-08-12T04:09:47.241Z,101798.13
2022-08-12T04:12:34.153Z,101802.95
2022-08-12T04:15:03.412Z,101807.30
2022-08-12T04:17:33.112Z,101809.70
2022-08-12T04:20:01.655Z,101810.20
2022-08-12T04:22:31.099Z,101805.68
2022-08-12T04:25:01.313Z,101808.61
2022-08-12T04:27:30.962Z,101810.22
2022-08-12T04:30:29.920Z,101808.04
2022-08-12T04:32:50.449Z,101810.95
2022-08-12T04:35:19.375Z,101818.82
2022-08-12T04:37:58.138Z,101825.09
2022-08-12T04:40:32.470Z,101822.88
2022-08-12T04:43:01.695Z,101814.80
2022-08-12T04:45:31.789Z,101813.83
2022-08-12T04:48:01.721Z,101817.07
2022-08-12T04:50:36.048Z,101817.09
2022-08-12T04:53:06.786Z,101814.88
2022-08-12T04:55:39.068Z,101815.61
2022-08-12T04:58:11.615Z,101819.40
2022-08-12T05:00:40.256Z,101817.08
2022-08-12T05:03:09.154Z,101818.67
2022-08-12T05:05:39.608Z,101815.46
2022-08-12T05:08:12.368Z,101817.94
2022-08-12T05:10:40.916Z,101815.21
2022-08-12T05:13:13.689Z,101819.68
2022-08-12T05:16:04.640Z,101820.24
2022-08-12T05:18:33.220Z,101814.19
2022-08-12T05:21:04.229Z,101812.83
2022-08-12T05:23:33.378Z,101810.86
2022-08-12T05:26:01.802Z,101808.50
2022-08-12T05:28:30.655Z,101809.77
2022-08-12T05:31:01.179Z,101804.15
2022-08-12T05:33:36.927Z,101802.27
2022-08-12T05:36:07.317Z,101799.73
2022-08-12T05:38:54.570Z,101795.63
2022-08-12T05:41:24.446Z,101793.55
2022-08-12T05:43:54.549Z,101793.09
2022-08-12T05:46:24.159Z,101798.58
2022-08-12T05:48:54.133Z,101801.95
2022-08-12T05:51:24.255Z,101801.40
2022-08-12T05:53:58.153Z,101797.24
2022-08-12T06:00:03.674Z,101803.50
2022-08-12T06:02:41.270Z,101799.31
2022-08-12T06:05:10.363Z,101796.31
2022-08-12T06:08:49.005Z,101795.66
2022-08-12T06:17:04.826Z,101797.80
2022-08-12T06:20:27.330Z,101793.19
2022-08-12T06:22:23.230Z,101788.99
2022-08-12T06:24:52.761Z,101791.89
2022-08-12T06:27:36.205Z,101788.70
2022-08-12T06:30:42.010Z,101780.52
2022-08-12T06:33:59.464Z,101788.66
2022-08-12T06:36:49.403Z,101785.66
2022-08-12T06:39:26.537Z,101782.80
2022-08-12T06:42:32.551Z,101786.19
2022-08-12T06:45:07.325Z,101780.54
2022-08-12T06:47:40.753Z,101778.55
2022-08-12T06:50:15.904Z,101778.98
2022-08-12T06:52:50.938Z,101777.38
2022-08-12T06:55:25.519Z,101779.30
2022-08-12T06:58:10.230Z,101783.02
2022-08-12T07:00:46.399Z,101783.48
2022-08-12T07:03:27.968Z,101782.70
2022-08-12T07:06:02.132Z,101784.45
2022-08-12T07:08:35.878Z,101785.86
2022-08-12T07:11:10.151Z,101783.92
2022-08-12T07:14:02.587Z,101782.55
2022-08-12T07:16:51.014Z,101779.80
2022-08-12T07:19:23.338Z,101778.76
2022-08-12T07:22:06.472Z,101776.05
2022-08-12T07:24:38.373Z,101770.86
2022-08-12T07:27:12.080Z,101770.32
2022-08-12T07:29:57.913Z,101766.70
2022-08-12T07:32:35.881Z,101763.88
2022-08-12T07:35:09.446Z,101764.11
2022-08-12T07:37:44.438Z,101758.58
2022-08-12T07:40:18.856Z,101757.46
2022-08-12T07:42:50.753Z,101754.38
2022-08-12T07:45:22.866Z,101754.83
2022-08-12T07:47:54.796Z,101753.09
2022-08-12T07:50:27.210Z,101751.94
2022-08-12T07:53:00.151Z,101749.13
2022-08-12T07:55:31.988Z,101746.53
2022-08-12T07:58:04.619Z,101746.77
2022-08-12T08:00:40.499Z,101748.63
2022-08-12T08:03:17.388Z,101746.84
2022-08-12T08:05:51.956Z,101750.30
2022-08-12T08:08:26.466Z,101748.73
2022-08-12T08:11:15.306Z,101747.48
2022-08-12T08:13:49.405Z,101744.75
2022-08-12T08:16:21.307Z,101747.80
2022-08-12T08:18:55.966Z,101746.89
2022-08-12T08:21:35.490Z,101745.76
2022-08-12T08:24:17.414Z,101749.87
2022-08-12T08:26:50.307Z,101747.82
2022-08-12T08:29:23.957Z,101752.38
2022-08-12T08:32:00.163Z,101752.59
2022-08-12T08:37:27.733Z,101754.04
2022-08-12T08:40:20.400Z,101752.47
2022-08-12T08:42:52.290Z,101757.58
2022-08-12T08:45:24.149Z,101751.45
2022-08-12T08:47:59.694Z,101754.78
2022-08-12T08:50:33.653Z,101746.79
2022-08-12T08:53:08.828Z,101748.32
2022-08-12T08:56:04.175Z,101745.36
2022-08-12T08:58:34.584Z,101744.16
2022-08-12T09:01:06.449Z,101747.48
2022-08-12T09:05:11.974Z,101745.13
2022-08-12T09:06:37.023Z,101743.39
2022-08-12T09:09:13.334Z,101741.19
2022-08-12T09:12:10.789Z,101741.52
2022-08-12T09:14:47.032Z,101744.09
2022-08-12T09:17:24.207Z,101741.77
2022-08-12T09:19:58.355Z,101736.59
2022-08-12T09:22:30.804Z,101741.87
2022-08-12T09:25:08.298Z,101738.89
2022-08-12T09:28:04.134Z,101743.15
2022-08-12T09:30:41.667Z,101739.99
2022-08-12T09:34:24.698Z,101739.86
2022-08-12T09:36:07.361Z,101740.84
2022-08-12T09:38:58.746Z,101739.97
2022-08-12T09:42:33.816Z,101737.89
2022-08-12T09:45:17.852Z,101732.02
2022-08-12T09:47:45.590Z,101729.96
2022-08-12T09:50:31.696Z,101728.78
2022-08-12T09:53:14.926Z,101732.45
2022-08-12T09:56:05.597Z,101727.66
2022-08-12T09:58:57.729Z,101726.13
2022-08-12T10:01:35.042Z,101726.95
2022-08-12T10:04:23.342Z,101725.33
2022-08-12T10:06:57.595Z,101723.88
2022-08-12T10:09:58.323Z,101717.73
2022-08-12T10:12:39.397Z,101716.54
2022-08-12T10:15:15.476Z,101709.01
2022-08-12T10:18:06.829Z,101702.25
2022-08-12T10:20:39.987Z,101698.55
2022-08-12T10:23:12.656Z,101696.39
2022-08-12T10:26:35.171Z,101691.34
2022-08-12T10:29:15.722Z,101681.77
2022-08-12T10:32:20.913Z,101678.14
2022-08-12T10:34:57.418Z,101675.95
2022-08-12T10:38:34.638Z,101677.75
2022-08-12T10:40:25.396Z,101673.73
2022-08-12T10:43:18.890Z,101674.42
2022-08-12T10:45:54.243Z,101672.60
2022-08-12T10:48:34.297Z,101665.55
2022-08-12T10:52:03.691Z,101659.82
2022-08-12T10:54:00.921Z,101653.59
2022-08-12T10:56:37.017Z,101654.08
2022-08-12T10:59:10.966Z,101656.02
2022-08-12T11:04:17.246Z,101654.49
2022-08-12T11:04:45.573Z,101651.50
2022-08-12T11:08:34.387Z,101649.09
2022-08-12T11:10:14.282Z,101643.92
2022-08-12T11:12:59.099Z,101645.04
2022-08-12T11:16:02.605Z,101642.55
2022-08-12T11:18:25.017Z,101640.96
2022-08-12T11:20:58.214Z,101648.77
2022-08-12T11:23:37.380Z,101649.52
2022-08-12T11:26:10.036Z,101644.50
2022-08-12T11:28:41.906Z,101641.79
2022-08-12T11:31:14.630Z,101642.70
2022-08-12T11:34:06.569Z,101649.23
2022-08-12T11:36:53.498Z,101642.52
2022-08-12T11:39:28.493Z,101635.98
2022-08-12T11:42:17.846Z,101632.48
2022-08-12T11:45:04.151Z,101625.43
2022-08-12T11:47:40.390Z,101622.53
2022-08-12T11:50:18.897Z,101615.51
2022-08-12T11:52:56.583Z,101611.34
2022-08-12T11:55:29.800Z,101614.27
2022-08-12T11:58:32.237Z,101617.17
2022-08-12T12:03:46.655Z,101614.46
2022-08-12T12:06:21.067Z,101613.72
2022-08-12T12:08:54.897Z,101614.83
2022-08-12T12:11:27.045Z,101616.27
2022-08-12T12:14:18.869Z,101612.83
2022-08-12T12:17:09.850Z,101618.81
2022-08-12T12:19:46.147Z,101617.00
2022-08-12T12:22:23.415Z,101617.56
2022-08-12T12:25:12.706Z,101614.46
2022-08-12T12:28:06.071Z,101609.05
2022-08-12T12:30:39.058Z,101605.05
2022-08-12T12:33:26.526Z,101598.90
2022-08-12T12:36:23.139Z,101593.46
2022-08-12T12:38:57.106Z,101594.55
2022-08-12T12:42:42.586Z,101594.17
2022-08-12T12:44:25.740Z,101594.73
2022-08-12T12:47:30.115Z,101600.16
2022-08-12T12:50:02.210Z,101599.43
2022-08-12T12:52:38.446Z,101595.63
2022-08-12T12:55:16.375Z,101592.54
2022-08-12T12:57:59.150Z,101587.28
2022-08-12T13:00:33.285Z,101590.73
2022-08-12T13:03:05.134Z,101592.02
2022-08-12T13:05:42.357Z,101586.02
2022-08-12T13:08:28.589Z,101578.78
2022-08-12T13:11:09.222Z,101577.50
2022-08-12T13:14:10.173Z,101570.26
2022-08-12T13:16:34.980Z,101575.33
2022-08-12T13:19:07.839Z,101570.08
2022-08-12T13:22:00.351Z,101569.91
2022-08-12T13:24:32.461Z,101565.55
2022-08-12T13:27:04.666Z,101562.11
2022-08-12T13:29:39.182Z,101562.30
2022-08-12T13:32:18.999Z,101561.76
2022-08-12T13:35:19.241Z,101562.12
2022-08-12T13:37:55.781Z,101559.39
2022-08-12T13:40:30.226Z,101557.59
2022-08-12T13:43:07.047Z,101556.32
2022-08-12T13:45:40.324Z,101556.50
2022-08-12T13:48:12.220Z,101550.34
2022-08-12T13:50:44.453Z,101547.61
2022-08-12T13:53:26.086Z,101547.44
2022-08-12T13:56:16.186Z,101542.00
2022-08-12T13:58:52.702Z,101543.81
2022-08-12T14:01:24.754Z,101541.46
2022-08-12T14:03:56.845Z,101540.74
2022-08-12T14:06:30.373Z,101540.18
2022-08-12T14:09:15.429Z,101541.96
2022-08-12T14:11:58.802Z,101543.39
2022-08-12T14:14:35.707Z,101544.11
2022-08-12T14:17:10.724Z,101541.21
2022-08-12T14:20:05.961Z,101536.14
2022-08-12T14:22:51.413Z,101533.42
2022-08-12T14:25:24.735Z,101535.05
2022-08-12T14:28:03.359Z,101531.08
2022-08-12T14:30:38.608Z,101530.89
2022-08-12T14:33:44.265Z,101531.98
2022-08-12T14:36:20.621Z,101530.17
2022-08-12T14:38:56.028Z,101531.98
2022-08-12T14:41:37.244Z,101530.55
2022-08-12T14:44:57.505Z,101531.83
2022-08-12T14:47:14.266Z,101528.92
2022-08-12T14:50:41.321Z,101531.10
2022-08-12T14:58:37.520Z,101522.40
2022-08-12T15:01:42.849Z,101519.33
2022-08-12T15:04:15.829Z,101518.95
2022-08-12T15:06:52.342Z,101517.52
2022-08-12T15:09:28.826Z,101522.04
2022-08-12T15:12:03.268Z,101516.98
2022-08-12T15:14:37.968Z,101515.92
2022-08-12T15:17:10.049Z,101511.40
2022-08-12T15:20:11.885Z,101515.02
2022-08-12T15:22:53.424Z,101513.76
2022-08-12T15:25:26.259Z,101514.30
2022-08-12T15:28:04.416Z,101512.13
2022-08-12T15:30:53.350Z,101512.67
2022-08-12T15:33:26.736Z,101511.76
2022-08-12T15:36:36.552Z,101511.95
2022-08-12T15:39:17.687Z,101509.73
2022-08-12T15:41:50.904Z,101507.56
2022-08-12T15:44:37.941Z,101506.29
2022-08-12T15:47:16.318Z,101502.13
2022-08-12T15:49:59.781Z,101501.02
2022-08-12T15:52:37.655Z,101504.84
2022-08-12T15:55:16.744Z,101497.05
2022-08-12T15:57:54.191Z,101496.69
2022-08-12T16:00:32.818Z,101497.21
2022-08-12T16:03:14.371Z,101503.02
2022-08-12T16:06:11.882Z,101495.41
2022-08-12T16:08:47.718Z,101491.80
2022-08-12T16:11:22.047Z,101492.70
2022-08-12T16:13:53.847Z,101489.27
2022-08-12T16:16:25.697Z,101489.64
2022-08-12T16:19:04.535Z,101491.27
2022-08-12T16:21:58.415Z,101492.90
2022-08-12T16:24:34.993Z,101494.16
2022-08-12T16:27:10.995Z,101493.98
2022-08-12T16:29:53.530Z,101494.02
2022-08-12T16:32:31.172Z,101490.92
2022-08-12T16:35:06.377Z,101490.91
2022-08-12T16:38:24.457Z,101489.45
2022-08-12T16:40:33.800Z,101492.52
2022-08-12T16:43:21.402Z,101490.88
2022-08-12T16:46:07.691Z,101484.73
2022-08-12T16:48:50.445Z,101484.73
2022-08-12T16:51:26.644Z,101486.15
2022-08-12T16:54:02.861Z,101484.16
2022-08-12T16:56:38.020Z,101479.43
2022-08-12T16:59:16.037Z,101476.73
2022-08-12T17:01:49.727Z,101470.95
2022-08-12T17:04:24.385Z,101476.02
2022-08-12T17:06:56.725Z,101473.83
2022-08-12T17:09:39.761Z,101468.05
2022-08-12T17:12:12.684Z,101461.16
2022-08-12T17:14:47.240Z,101461.66
2022-08-12T17:17:38.882Z,101459.65
2022-08-12T17:20:34.109Z,101459.29
2022-08-12T17:23:13.695Z,101454.38
2022-08-12T17:25:50.364Z,101457.98
2022-08-12T17:28:23.388Z,101455.44
2022-08-12T17:31:00.315Z,101446.00
2022-08-12T17:33:35.882Z,101450.50
2022-08-12T17:36:11.518Z,101451.91
2022-08-12T17:38:44.408Z,101455.85
2022-08-12T17:41:56.044Z,101454.02
2022-08-12T17:44:15.425Z,101453.95
2022-08-12T17:46:53.766Z,101458.83
2022-08-12T17:50:02.333Z,101454.83
2022-08-12T17:52:20.911Z,101453.89
2022-08-12T17:54:58.653Z,101458.21
2022-08-12T17:57:31.622Z,101456.20
2022-08-12T18:00:12.833Z,101456.70
2022-08-12T18:02:46.766Z,101458.14
2022-08-12T18:05:23.104Z,101463.89
2022-08-12T18:07:57.873Z,101461.88
2022-08-12T18:10:53.103Z,101461.14
2022-08-12T18:13:34.648Z,101461.30
2022-08-12T18:16:16.230Z,101462.36
2022-08-12T18:18:59.694Z,101465.59
2022-08-12T18:22:01.864Z,101469.19
2022-08-12T18:24:29.521Z,101471.14
2022-08-12T18:27:30.090Z,101466.25
2022-08-12T18:29:55.472Z,101462.77
2022-08-12T18:32:53.796Z,101465.59
2022-08-12T18:35:20.409Z,101469.89
2022-08-12T18:38:03.703Z,101475.44
2022-08-12T18:40:55.294Z,101474.52
2022-08-12T18:43:37.003Z,101475.21
2022-08-12T18:46:34.404Z,101470.16
2022-08-12T18:49:18.709Z,101469.79
2022-08-12T18:52:02.520Z,101467.96
2022-08-12T18:54:54.112Z,101469.73
2022-08-12T18:58:07.203Z,101469.86
2022-08-12T19:00:25.143Z,101466.05
2022-08-12T19:02:58.953Z,101466.55
2022-08-12T19:05:54.267Z,101467.61
2022-08-12T19:08:31.376Z,101470.08
2022-08-12T19:11:17.542Z,101469.14
2022-08-12T19:14:08.381Z,101470.02
2022-08-12T19:16:44.102Z,101468.89
2022-08-12T19:19:24.616Z,101466.33
2022-08-12T19:21:58.103Z,101468.45
2022-08-12T19:24:51.806Z,101470.40
2022-08-12T19:27:24.830Z,101468.39
2022-08-12T19:30:09.288Z,101470.68
2022-08-12T19:32:48.752Z,101470.83
2022-08-12T19:36:06.432Z,101470.08
2022-08-12T19:38:20.832Z,101469.15
2022-08-12T19:40:53.752Z,101474.89
2022-08-12T19:43:27.265Z,101473.23
2022-08-12T19:46:27.724Z,101468.85
2022-08-12T19:49:07.004Z,101470.09
2022-08-12T19:51:42.567Z,101469.30
2022-08-12T19:54:23.071Z,101473.38
2022-08-12T19:57:04.581Z,101474.77
2022-08-12T19:59:43.490Z,101475.62
2022-08-12T20:02:32.898Z,101475.36
2022-08-12T20:06:03.679Z,101478.00
2022-08-12T20:07:59.669Z,101477.39
2022-08-12T20:10:36.275Z,101478.41
2022-08-12T20:13:18.798Z,101478.54
2022-08-12T20:15:59.960Z,101480.30
2022-08-12T20:18:53.243Z,101480.27
2022-08-12T20:21:25.513Z,101483.96
2022-08-12T20:24:14.628Z,101486.59
2022-08-12T20:26:46.794Z,101479.52
2022-08-12T20:29:24.350Z,101490.10
2022-08-12T20:32:10.402Z,101492.02
2022-08-12T20:34:48.271Z,101493.45
2022-08-12T20:38:07.046Z,101490.86
2022-08-12T20:40:19.356Z,101494.40
2022-08-12T20:42:55.821Z,101491.48
2022-08-12T20:45:32.919Z,101489.83
2022-08-12T20:48:17.103Z,101491.41
2022-08-12T20:50:53.718Z,101490.28
2022-08-12T20:53:54.048Z,101493.30
2022-08-12T20:56:31.040Z,101512.88
2022-08-12T20:59:06.688Z,101518.78
2022-08-12T21:01:46.452Z,101511.16
2022-08-12T21:04:38.611Z,101507.34
2022-08-12T21:07:11.444Z,101509.09
2022-08-12T21:09:49.212Z,101508.88
2022-08-12T21:12:27.700Z,101507.21
2022-08-12T21:15:23.540Z,101505.38
2022-08-12T21:18:11.397Z,101511.47
2022-08-12T21:20:57.372Z,101512.14
2022-08-12T21:23:37.109Z,101515.52
2022-08-12T21:26:16.444Z,101517.44
2022-08-12T21:28:58.253Z,101520.06
2022-08-12T21:32:47.061Z,101523.56
2022-08-12T21:34:31.193Z,101524.77
2022-08-12T21:37:13.195Z,101520.15
2022-08-12T21:39:57.263Z,101524.60
2022-08-12T21:42:42.091Z,101525.83
2022-08-12T21:45:48.403Z,101528.14
2022-08-12T21:48:11.778Z,101529.48
2022-08-12T21:50:44.497Z,101529.06
2022-08-12T21:53:19.325Z,101531.73
2022-08-12T21:55:57.957Z,101532.38
2022-08-12T21:58:29.843Z,101529.64
2022-08-12T22:01:01.968Z,101522.95
2022-08-12T22:04:03.844Z,101521.98
2022-08-12T22:06:44.597Z,101521.02
2022-08-12T22:09:18.609Z,101520.06
2022-08-12T22:11:59.496Z,101519.85
2022-08-12T22:14:31.763Z,101515.33
2022-08-12T22:17:05.160Z,101512.93
2022-08-12T22:19:40.673Z,101515.05
2022-08-12T22:22:14.606Z,101508.55
2022-08-12T22:24:48.365Z,101507.41
2022-08-12T22:27:32.434Z,101501.61
2022-08-12T22:30:23.425Z,101500.48
2022-08-12T22:32:57.925Z,101496.33
2022-08-12T22:35:55.679Z,101504.02
2022-08-12T22:38:35.953Z,101505.59
2022-08-12T22:41:33.057Z,101508.77
2022-08-12T22:44:23.953Z,101509.43
2022-08-12T22:47:15.153Z,101507.74
2022-08-12T22:50:09.477Z,101503.56
2022-08-12T22:53:15.729Z,101501.52
2022-08-12T22:56:00.258Z,101500.23
2022-08-12T22:58:41.256Z,101500.19
2022-08-12T23:01:21.461Z,101491.18
2022-08-12T23:04:15.399Z,101495.64
2022-08-12T23:07:05.457Z,101491.45
2022-08-12T23:09:47.978Z,101493.57
2022-08-12T23:12:34.417Z,101497.27
2022-08-12T23:15:11.526Z,101499.14
2022-08-12T23:17:46.003Z,101499.25
2022-08-12T23:20:22.725Z,101497.92
2022-08-12T23:23:03.018Z,101492.84
2022-08-12T23:25:55.613Z,101495.14
2022-08-12T23:28:52.590Z,101495.99
2022-08-12T23:32:03.640Z,101493.27
2022-08-12T23:34:31.937Z,101489.83
2022-08-12T23:37:05.467Z,101488.90
2022-08-12T23:40:14.053Z,101484.02
2022-08-12T23:42:30.755Z,101484.70
2022-08-12T23:45:19.097Z,101484.13
2022-08-12T23:47:58.434Z,101475.84
2022-08-12T23:50:33.386Z,101474.19
2022-08-12T23:53:22.390Z,101470.71
2022-08-12T23:55:57.158Z,101471.02
2022-08-12T23:58:31.126Z,101465.05
